Raleigh, Illinois
Current Conditions -  °F | °C
As of 12:55 PM on Monday 20 Oct 2014 (Local Time) from KHSB Reporting Station
Clear Clear  
Wind Chill: 20°   Ceiling: Unl
Heat Index: 20°   Visibility: 10mi
Dew Point: 12°   Wind: 10mph
Humidity: 60%   Direction: 210°SSW
Pressure: 29.96"   Gusts: NA
Location:  37.83°N, 88.53°W
Report Text: KHSB 201755Z AUTO 21009KT 10SM CLR 20/12 A2996 RMK AO2 T02000119 10200 20102
Loading
Personal Weather Stations






























Interactive Weather Map
Tropical Storm Tracking
New forecast layout! Learn more

10-Day Weather Forecast

Advertisements
Track Severe Weather on mobile